sensor_id;sensor_type;location;lat;lon;timestamp;pressure;altitude;pressure_sealevel;temperature;humidity
33075;BME280;19433;51.292;6.868;2022-08-27T00:01:49;100428.81;;;17.07;100.00
33075;BME280;19433;51.292;6.868;2022-08-27T00:04:15;100451.22;;;17.24;100.00
33075;BME280;19433;51.292;6.868;2022-08-27T00:06:40;100431.41;;;17.26;100.00
33075;BME280;19433;51.292;6.868;2022-08-27T00:09:06;100439.78;;;17.26;100.00
33075;BME280;19433;51.292;6.868;2022-08-27T00:11:31;100444.25;;;17.27;100.00
33075;BME280;19433;51.292;6.868;2022-08-27T00:13:57;100434.78;;;17.28;100.00
33075;BME280;19433;51.292;6.868;2022-08-27T00:16:22;100416.38;;;17.15;100.00
33075;BME280;19433;51.292;6.868;2022-08-27T00:18:48;100434.78;;;17.28;100.00
33075;BME280;19433;51.292;6.868;2022-08-27T00:21:15;100444.41;;;17.20;100.00
33075;BME280;19433;51.292;6.868;2022-08-27T00:23:41;100449.63;;;17.16;100.00
33075;BME280;19433;51.292;6.868;2022-08-27T00:26:07;100439.56;;;17.15;100.00
33075;BME280;19433;51.292;6.868;2022-08-27T00:28:33;100439.56;;;17.15;100.00
33075;BME280;19433;51.292;6.868;2022-08-27T00:30:59;100431.44;;;17.14;100.00
33075;BME280;19433;51.292;6.868;2022-08-27T00:33:25;100434.84;;;17.16;100.00
33075;BME280;19433;51.292;6.868;2022-08-27T00:35:52;100454.25;;;17.22;100.00
33075;BME280;19433;51.292;6.868;2022-08-27T00:38:19;100435.25;;;17.08;100.00
33075;BME280;19433;51.292;6.868;2022-08-27T00:40:45;100446.41;;;17.08;100.00
33075;BME280;19433;51.292;6.868;2022-08-27T00:43:11;100437.69;;;17.04;100.00
33075;BME280;19433;51.292;6.868;2022-08-27T00:45:40;100429.94;;;16.95;100.00
33075;BME280;19433;51.292;6.868;2022-08-27T00:48:08;100441.56;;;17.03;100.00
33075;BME280;19433;51.292;6.868;2022-08-27T00:50:38;100430.94;;;16.88;100.00
33075;BME280;19433;51.292;6.868;2022-08-27T00:53:13;100444.97;;;17.05;100.00
33075;BME280;19433;51.292;6.868;2022-08-27T00:55:46;100441.28;;;17.16;100.00
33075;BME280;19433;51.292;6.868;2022-08-27T00:58:20;100445.75;;;17.17;100.00
33075;BME280;19433;51.292;6.868;2022-08-27T01:00:47;100441.50;;;17.15;100.00
33075;BME280;19433;51.292;6.868;2022-08-27T01:03:14;100440.16;;;17.17;100.00
33075;BME280;19433;51.292;6.868;2022-08-27T01:05:41;100427.91;;;17.18;100.00
33075;BME280;19433;51.292;6.868;2022-08-27T01:08:12;100432.69;;;17.06;100.00
33075;BME280;19433;51.292;6.868;2022-08-27T01:10:39;100445.44;;;17.02;100.00
33075;BME280;19433;51.292;6.868;2022-08-27T01:13:09;100435.25;;;16.96;100.00
33075;BME280;19433;51.292;6.868;2022-08-27T01:15:39;100435.97;;;17.03;100.00
33075;BME280;19433;51.292;6.868;2022-08-27T01:18:06;100432.47;;;16.96;100.00
33075;BME280;19433;51.292;6.868;2022-08-27T01:23:21;100438.16;;;17.01;100.00
33075;BME280;19433;51.292;6.868;2022-08-27T01:25:49;100432.47;;;16.96;100.00
33075;BME280;19433;51.292;6.868;2022-08-27T01:28:16;100430.19;;;16.93;100.00
33075;BME280;19433;51.292;6.868;2022-08-27T01:30:42;100424.84;;;16.92;100.00
33075;BME280;19433;51.292;6.868;2022-08-27T01:33:14;100424.22;;;17.01;100.00
33075;BME280;19433;51.292;6.868;2022-08-27T01:35:41;100434.53;;;17.01;100.00
33075;BME280;19433;51.292;6.868;2022-08-27T01:38:07;100434.88;;;17.04;100.00
33075;BME280;19433;51.292;6.868;2022-08-27T01:40:34;100427.13;;;17.06;100.00
33075;BME280;19433;51.292;6.868;2022-08-27T01:43:00;100408.41;;;17.07;100.00
33075;BME280;19433;51.292;6.868;2022-08-27T01:45:29;100408.66;;;17.05;100.00
33075;BME280;19433;51.292;6.868;2022-08-27T01:47:55;100413.34;;;17.16;100.00
33075;BME280;19433;51.292;6.868;2022-08-27T01:50:25;100399.81;;;17.08;100.00
33075;BME280;19433;51.292;6.868;2022-08-27T01:52:52;100412.66;;;17.09;100.00
33075;BME280;19433;51.292;6.868;2022-08-27T01:55:22;100405.16;;;16.98;100.00
33075;BME280;19433;51.292;6.868;2022-08-27T01:57:48;100398.41;;;16.94;100.00
33075;BME280;19433;51.292;6.868;2022-08-27T02:00:35;100404.84;;;16.95;100.00
33075;BME280;19433;51.292;6.868;2022-08-27T02:03:03;100412.00;;;16.91;100.00
33075;BME280;19433;51.292;6.868;2022-08-27T02:05:29;100407.63;;;16.95;100.00
33075;BME280;19433;51.292;6.868;2022-08-27T02:07:55;100400.09;;;16.95;100.00
33075;BME280;19433;51.292;6.868;2022-08-27T02:10:27;100400.59;;;16.92;100.00
33075;BME280;19433;51.292;6.868;2022-08-27T02:12:53;100400.66;;;16.97;100.00
33075;BME280;19433;51.292;6.868;2022-08-27T02:15:18;100402.28;;;16.93;100.00
33075;BME280;19433;51.292;6.868;2022-08-27T02:17:45;100415.94;;;17.06;100.00
33075;BME280;19433;51.292;6.868;2022-08-27T02:20:10;100400.78;;;17.02;100.00
33075;BME280;19433;51.292;6.868;2022-08-27T02:22:37;100405.41;;;16.97;100.00
33075;BME280;19433;51.292;6.868;2022-08-27T02:25:03;100408.91;;;17.04;100.00
33075;BME280;19433;51.292;6.868;2022-08-27T02:27:31;100396.72;;;16.93;100.00
33075;BME280;19433;51.292;6.868;2022-08-27T02:29:56;100413.22;;;16.95;100.00
33075;BME280;19433;51.292;6.868;2022-08-27T02:32:21;100405.94;;;16.94;100.00
33075;BME280;19433;51.292;6.868;2022-08-27T02:34:47;100402.63;;;16.97;100.00
33075;BME280;19433;51.292;6.868;2022-08-27T02:37:13;100409.56;;;16.94;100.00
33075;BME280;19433;51.292;6.868;2022-08-27T02:39:38;100407.72;;;17.00;100.00
33075;BME280;19433;51.292;6.868;2022-08-27T02:42:04;100408.34;;;16.90;100.00
33075;BME280;19433;51.292;6.868;2022-08-27T02:44:29;100407.63;;;16.95;100.00
33075;BME280;19433;51.292;6.868;2022-08-27T02:46:56;100408.72;;;16.82;100.00
33075;BME280;19433;51.292;6.868;2022-08-27T02:49:22;100412.00;;;16.91;100.00
33075;BME280;19433;51.292;6.868;2022-08-27T02:51:47;100400.88;;;16.79;100.00
33075;BME280;19433;51.292;6.868;2022-08-27T02:54:12;100412.25;;;16.89;100.00
33075;BME280;19433;51.292;6.868;2022-08-27T02:56:38;100416.84;;;16.95;100.00
33075;BME280;19433;51.292;6.868;2022-08-27T02:59:04;100405.13;;;17.10;100.00
33075;BME280;19433;51.292;6.868;2022-08-27T03:01:29;100401.75;;;17.08;100.00
33075;BME280;19433;51.292;6.868;2022-08-27T03:03:55;100413.47;;;17.21;100.00
33075;BME280;19433;51.292;6.868;2022-08-27T03:06:21;100402.69;;;17.13;100.00
33075;BME280;19433;51.292;6.868;2022-08-27T03:08:46;100393.41;;;16.96;100.00
33075;BME280;19433;51.292;6.868;2022-08-27T03:11:12;100413.91;;;17.02;100.00
33075;BME280;19433;51.292;6.868;2022-08-27T03:13:38;100399.94;;;17.02;100.00
33075;BME280;19433;51.292;6.868;2022-08-27T03:16:04;100396.72;;;16.81;100.00
33075;BME280;19433;51.292;6.868;2022-08-27T03:18:30;100400.47;;;16.87;100.00
33075;BME280;19433;51.292;6.868;2022-08-27T03:20:56;100404.25;;;16.81;100.00
33075;BME280;19433;51.292;6.868;2022-08-27T03:23:24;100394.78;;;16.82;100.00
33075;BME280;19433;51.292;6.868;2022-08-27T03:25:54;100405.56;;;16.90;100.00
33075;BME280;19433;51.292;6.868;2022-08-27T03:28:21;100409.81;;;16.93;100.00
33075;BME280;19433;51.292;6.868;2022-08-27T03:30:50;100408.53;;;16.72;100.00
33075;BME280;19433;51.292;6.868;2022-08-27T03:33:17;100409.59;;;16.82;100.00
33075;BME280;19433;51.292;6.868;2022-08-27T03:35:44;100409.50;;;16.77;100.00
33075;BME280;19433;51.292;6.868;2022-08-27T03:38:09;100410.47;;;16.71;100.00
33075;BME280;19433;51.292;6.868;2022-08-27T03:40:34;100405.97;;;16.70;100.00
33075;BME280;19433;51.292;6.868;2022-08-27T03:43:00;100403.56;;;16.62;100.00
33075;BME280;19433;51.292;6.868;2022-08-27T03:45:25;100411.44;;;16.65;100.00
33075;BME280;19433;51.292;6.868;2022-08-27T03:47:51;100393.13;;;16.69;100.00
33075;BME280;19433;51.292;6.868;2022-08-27T03:50:17;100401.72;;;16.68;100.00
33075;BME280;19433;51.292;6.868;2022-08-27T03:52:42;100406.22;;;16.69;100.00
33075;BME280;19433;51.292;6.868;2022-08-27T03:55:08;100407.56;;;16.66;100.00
33075;BME280;19433;51.292;6.868;2022-08-27T03:57:34;100405.75;;;16.60;100.00
33075;BME280;19433;51.292;6.868;2022-08-27T03:59:59;100385.28;;;16.43;100.00
33075;BME280;19433;51.292;6.868;2022-08-27T04:02:25;100406.22;;;16.57;100.00
33075;BME280;19433;51.292;6.868;2022-08-27T04:04:51;100395.47;;;16.49;100.00
33075;BME280;19433;51.292;6.868;2022-08-27T04:07:16;100401.38;;;16.52;100.00
33075;BME280;19433;51.292;6.868;2022-08-27T04:09:41;100394.34;;;16.50;100.00
33075;BME280;19433;51.292;6.868;2022-08-27T04:12:07;100407.56;;;16.54;100.00
33075;BME280;19433;51.292;6.868;2022-08-27T04:14:32;100406.13;;;16.64;100.00
33075;BME280;19433;51.292;6.868;2022-08-27T04:16:58;100408.66;;;16.65;100.00
33075;BME280;19433;51.292;6.868;2022-08-27T04:19:25;100409.63;;;16.59;100.00
33075;BME280;19433;51.292;6.868;2022-08-27T04:21:59;100425.03;;;16.62;100.00
33075;BME280;19433;51.292;6.868;2022-08-27T04:24:24;100409.03;;;16.45;100.00
33075;BME280;19433;51.292;6.868;2022-08-27T04:26:49;100406.72;;;16.42;100.00
33075;BME280;19433;51.292;6.868;2022-08-27T04:29:15;100424.44;;;16.48;100.00
33075;BME280;19433;51.292;6.868;2022-08-27T04:31:40;100427.47;;;16.46;100.00
33075;BME280;19433;51.292;6.868;2022-08-27T04:34:06;100419.84;;;16.30;100.00
33075;BME280;19433;51.292;6.868;2022-08-27T04:36:31;100433.66;;;16.25;100.00
33075;BME280;19433;51.292;6.868;2022-08-27T04:38:57;100423.34;;;16.26;100.00
33075;BME280;19433;51.292;6.868;2022-08-27T04:41:22;100428.56;;;16.10;100.00
33075;BME280;19433;51.292;6.868;2022-08-27T04:43:55;100407.72;;;16.01;100.00
33075;BME280;19433;51.292;6.868;2022-08-27T04:46:22;100434.97;;;16.11;100.00
33075;BME280;19433;51.292;6.868;2022-08-27T04:48:49;100439.00;;;16.03;100.00
33075;BME280;19433;51.292;6.868;2022-08-27T04:51:14;100419.97;;;15.89;100.00
33075;BME280;19433;51.292;6.868;2022-08-27T04:53:40;100430.25;;;15.88;100.00
33075;BME280;19433;51.292;6.868;2022-08-27T04:56:05;100428.28;;;15.77;100.00
33075;BME280;19433;51.292;6.868;2022-08-27T04:58:31;100428.16;;;15.72;100.00
33075;BME280;19433;51.292;6.868;2022-08-27T05:00:57;100432.66;;;15.73;100.00
33075;BME280;19433;51.292;6.868;2022-08-27T05:03:26;100439.78;;;15.80;100.00
33075;BME280;19433;51.292;6.868;2022-08-27T05:06:01;100430.97;;;15.83;100.00
33075;BME280;19433;51.292;6.868;2022-08-27T05:08:27;100440.91;;;15.91;100.00
33075;BME280;19433;51.292;6.868;2022-08-27T05:10:53;100438.97;;;15.92;100.00
33075;BME280;19433;51.292;6.868;2022-08-27T05:13:19;100442.34;;;15.94;100.00
33075;BME280;19433;51.292;6.868;2022-08-27T05:15:46;100439.94;;;15.97;100.00
33075;BME280;19433;51.292;6.868;2022-08-27T05:18:12;100448.53;;;15.96;100.00
33075;BME280;19433;51.292;6.868;2022-08-27T05:20:44;100442.97;;;16.07;100.00
33075;BME280;19433;51.292;6.868;2022-08-27T05:23:10;100438.00;;;16.09;100.00
33075;BME280;19433;51.292;6.868;2022-08-27T05:25:40;100446.50;;;16.14;100.00
33075;BME280;19433;51.292;6.868;2022-08-27T05:28:07;100441.78;;;16.15;100.00
33075;BME280;19433;51.292;6.868;2022-08-27T05:30:38;100444.19;;;16.23;100.00
33075;BME280;19433;51.292;6.868;2022-08-27T05:33:04;100446.03;;;16.29;100.00
33075;BME280;19433;51.292;6.868;2022-08-27T05:35:30;100436.22;;;16.15;100.00
33075;BME280;19433;51.292;6.868;2022-08-27T05:37:56;100436.91;;;16.22;100.00
33075;BME280;19433;51.292;6.868;2022-08-27T05:40:24;100438.28;;;16.31;100.00
33075;BME280;19433;51.292;6.868;2022-08-27T05:42:49;100445.63;;;16.37;100.00
33075;BME280;19433;51.292;6.868;2022-08-27T05:45:15;100449.28;;;16.26;100.00
33075;BME280;19433;51.292;6.868;2022-08-27T05:47:41;100432.81;;;16.13;100.00
33075;BME280;19433;51.292;6.868;2022-08-27T05:50:07;100442.25;;;16.12;100.00
33075;BME280;19433;51.292;6.868;2022-08-27T05:52:32;100436.44;;;16.02;100.00
33075;BME280;19433;51.292;6.868;2022-08-27T05:54:58;100444.78;;;15.90;100.00
33075;BME280;19433;51.292;6.868;2022-08-27T05:57:23;100439.56;;;15.82;100.00
33075;BME280;19433;51.292;6.868;2022-08-27T05:59:49;100432.03;;;15.71;100.00
33075;BME280;19433;51.292;6.868;2022-08-27T06:02:33;100445.03;;;15.89;100.00
33075;BME280;19433;51.292;6.868;2022-08-27T06:05:02;100463.81;;;16.05;100.00
33075;BME280;19433;51.292;6.868;2022-08-27T06:07:28;100454.88;;;16.03;100.00
33075;BME280;19433;51.292;6.868;2022-08-27T06:09:54;100458.38;;;16.10;100.00
33075;BME280;19433;51.292;6.868;2022-08-27T06:12:19;100455.09;;;16.13;100.00
33075;BME280;19433;51.292;6.868;2022-08-27T06:14:45;100455.22;;;16.06;100.00
33075;BME280;19433;51.292;6.868;2022-08-27T06:17:10;100458.34;;;15.87;100.00
33075;BME280;19433;51.292;6.868;2022-08-27T06:19:36;100457.13;;;15.82;100.00
33075;BME280;19433;51.292;6.868;2022-08-27T06:22:01;100456.88;;;15.72;100.00
33075;BME280;19433;51.292;6.868;2022-08-27T06:24:27;100458.22;;;15.81;100.00
33075;BME280;19433;51.292;6.868;2022-08-27T06:26:53;100456.28;;;15.82;100.00
33075;BME280;19433;51.292;6.868;2022-08-27T06:29:18;100456.03;;;15.83;100.00
33075;BME280;19433;51.292;6.868;2022-08-27T06:31:43;100453.25;;;15.83;100.00
33075;BME280;19433;51.292;6.868;2022-08-27T06:34:09;100459.66;;;15.72;100.00
33075;BME280;19433;51.292;6.868;2022-08-27T06:36:37;100459.66;;;15.72;100.00
33075;BME280;19433;51.292;6.868;2022-08-27T06:39:04;100462.56;;;15.77;100.00
33075;BME280;19433;51.292;6.868;2022-08-27T06:41:30;100459.69;;;16.07;100.00
33075;BME280;19433;51.292;6.868;2022-08-27T06:43:56;100467.81;;;16.09;100.00
33075;BME280;19433;51.292;6.868;2022-08-27T06:46:25;100460.69;;;16.01;100.00
33075;BME280;19433;51.292;6.868;2022-08-27T06:48:52;100467.81;;;16.09;100.00
33075;BME280;19433;51.292;6.868;2022-08-27T06:51:20;100466.25;;;16.13;100.00
33075;BME280;19433;51.292;6.868;2022-08-27T06:53:47;100466.00;;;16.26;100.00
33075;BME280;19433;51.292;6.868;2022-08-27T06:56:16;100473.78;;;16.47;100.00
33075;BME280;19433;51.292;6.868;2022-08-27T06:58:42;100475.88;;;16.64;100.00
33075;BME280;19433;51.292;6.868;2022-08-27T07:01:13;100466.22;;;16.83;100.00
33075;BME280;19433;51.292;6.868;2022-08-27T07:03:38;100459.44;;;16.91;100.00
33075;BME280;19433;51.292;6.868;2022-08-27T07:06:05;100452.97;;;17.02;100.00
33075;BME280;19433;51.292;6.868;2022-08-27T07:08:30;100460.44;;;17.25;100.00
33075;BME280;19433;51.292;6.868;2022-08-27T07:10:56;100466.22;;;17.35;100.00
33075;BME280;19433;51.292;6.868;2022-08-27T07:13:22;100463.53;;;17.40;100.00
33075;BME280;19433;51.292;6.868;2022-08-27T07:15:47;100469.59;;;17.37;99.81
33075;BME280;19433;51.292;6.868;2022-08-27T07:18:12;100481.22;;;17.45;100.00
33075;BME280;19433;51.292;6.868;2022-08-27T07:20:40;100468.94;;;17.46;100.00
33075;BME280;19433;51.292;6.868;2022-08-27T07:23:05;100467.53;;;17.61;99.86
33075;BME280;19433;51.292;6.868;2022-08-27T07:25:31;100476.69;;;17.56;96.20
33075;BME280;19433;51.292;6.868;2022-08-27T07:27:57;100472.34;;;17.77;99.15
33075;BME280;19433;51.292;6.868;2022-08-27T07:30:24;100468.25;;;17.39;96.31
33075;BME280;19433;51.292;6.868;2022-08-27T07:32:50;100476.41;;;17.29;96.97
33075;BME280;19433;51.292;6.868;2022-08-27T07:35:15;100473.19;;;17.49;98.62
33075;BME280;19433;51.292;6.868;2022-08-27T07:37:41;100480.53;;;17.38;96.33
33075;BME280;19433;51.292;6.868;2022-08-27T07:40:11;100478.63;;;17.55;95.50
33075;BME280;19433;51.292;6.868;2022-08-27T07:42:37;100479.28;;;17.74;97.06
33075;BME280;19433;51.292;6.868;2022-08-27T07:45:21;100478.84;;;17.66;94.26
33075;BME280;19433;51.292;6.868;2022-08-27T07:47:47;100457.53;;;17.76;94.57
33075;BME280;19433;51.292;6.868;2022-08-27T07:50:13;100480.16;;;18.25;91.29
33075;BME280;19433;51.292;6.868;2022-08-27T07:52:42;100482.13;;;18.41;90.85
33075;BME280;19433;51.292;6.868;2022-08-27T07:55:12;100480.81;;;18.49;89.80
33075;BME280;19433;51.292;6.868;2022-08-27T07:57:38;100481.00;;;18.76;89.08
33075;BME280;19433;51.292;6.868;2022-08-27T08:00:06;100486.94;;;19.01;89.45
33075;BME280;19433;51.292;6.868;2022-08-27T08:02:34;100493.63;;;19.44;88.14
33075;BME280;19433;51.292;6.868;2022-08-27T08:04:59;100494.13;;;19.41;84.74
33075;BME280;19433;51.292;6.868;2022-08-27T08:07:24;100488.22;;;19.15;85.64
33075;BME280;19433;51.292;6.868;2022-08-27T08:09:50;100492.84;;;19.48;83.47
33075;BME280;19433;51.292;6.868;2022-08-27T08:12:15;100495.50;;;19.87;85.02
33075;BME280;19433;51.292;6.868;2022-08-27T08:14:40;100495.06;;;19.95;82.13
33075;BME280;19433;51.292;6.868;2022-08-27T08:17:06;100493.16;;;20.00;81.60
33075;BME280;19433;51.292;6.868;2022-08-27T08:19:31;100491.09;;;20.23;80.56
33075;BME280;19433;51.292;6.868;2022-08-27T08:21:58;100491.31;;;20.48;80.11
33075;BME280;19433;51.292;6.868;2022-08-27T08:24:23;100497.50;;;20.45;80.76
33075;BME280;19433;51.292;6.868;2022-08-27T08:26:49;100504.97;;;20.71;79.43
33075;BME280;19433;51.292;6.868;2022-08-27T08:29:15;100507.81;;;20.77;79.89
33075;BME280;19433;51.292;6.868;2022-08-27T08:31:41;100510.16;;;20.95;78.93
33075;BME280;19433;51.292;6.868;2022-08-27T08:34:07;100512.88;;;21.27;75.85
33075;BME280;19433;51.292;6.868;2022-08-27T08:36:32;100511.78;;;21.23;75.37
33075;BME280;19433;51.292;6.868;2022-08-27T08:38:58;100512.31;;;21.20;77.08
33075;BME280;19433;51.292;6.868;2022-08-27T08:41:42;100508.53;;;21.09;75.68
33075;BME280;19433;51.292;6.868;2022-08-27T08:44:17;100509.81;;;21.28;73.80
33075;BME280;19433;51.292;6.868;2022-08-27T08:52:43;100521.19;;;21.06;76.79
33075;BME280;19433;51.292;6.868;2022-08-27T08:55:20;100518.75;;;20.73;75.03
33075;BME280;19433;51.292;6.868;2022-08-27T09:00:38;100502.97;;;20.67;74.48
33075;BME280;19433;51.292;6.868;2022-08-27T09:03:06;100513.31;;;21.03;75.34
33075;BME280;19433;51.292;6.868;2022-08-27T09:05:32;100527.84;;;20.53;74.36
33075;BME280;19433;51.292;6.868;2022-08-27T09:08:12;100528.56;;;20.39;75.45
33075;BME280;19433;51.292;6.868;2022-08-27T09:10:47;100527.66;;;20.33;76.54
33075;BME280;19433;51.292;6.868;2022-08-27T09:13:30;100521.44;;;20.58;77.09
33075;BME280;19433;51.292;6.868;2022-08-27T09:15:58;100525.75;;;20.70;75.60
33075;BME280;19433;51.292;6.868;2022-08-27T09:18:25;100527.81;;;20.21;73.97
33075;BME280;19433;51.292;6.868;2022-08-27T09:20:57;100525.31;;;19.93;76.42
33075;BME280;19433;51.292;6.868;2022-08-27T09:23:42;100521.72;;;20.56;76.33
33075;BME280;19433;51.292;6.868;2022-08-27T09:26:25;100530.53;;;21.17;75.48
33075;BME280;19433;51.292;6.868;2022-08-27T09:28:58;100534.69;;;21.72;72.84
33075;BME280;19433;51.292;6.868;2022-08-27T09:31:41;100522.78;;;21.34;70.91
33075;BME280;19433;51.292;6.868;2022-08-27T09:34:07;100528.63;;;21.23;72.00
33075;BME280;19433;51.292;6.868;2022-08-27T09:36:32;100531.94;;;21.87;69.76
33075;BME280;19433;51.292;6.868;2022-08-27T09:38:59;100536.19;;;21.95;66.27
33075;BME280;19433;51.292;6.868;2022-08-27T09:41:47;100530.34;;;22.32;68.66
33075;BME280;19433;51.292;6.868;2022-08-27T09:44:17;100534.59;;;22.29;65.45
33075;BME280;19433;51.292;6.868;2022-08-27T09:46:55;100527.97;;;21.78;66.43
33075;BME280;19433;51.292;6.868;2022-08-27T09:49:21;100527.38;;;21.71;68.75
33075;BME280;19433;51.292;6.868;2022-08-27T09:51:48;100540.19;;;22.19;67.94
33075;BME280;19433;51.292;6.868;2022-08-27T09:56:53;100535.69;;;22.64;63.01
33075;BME280;19433;51.292;6.868;2022-08-27T09:59:24;100540.78;;;22.87;65.06
33075;BME280;19433;51.292;6.868;2022-08-27T10:01:56;100533.38;;;23.22;63.86
33075;BME280;19433;51.292;6.868;2022-08-27T10:04:37;100542.06;;;23.25;59.96
33075;BME280;19433;51.292;6.868;2022-08-27T10:07:25;100540.00;;;23.61;61.02
33075;BME280;19433;51.292;6.868;2022-08-27T10:10:09;100532.59;;;23.70;59.81
33075;BME280;19433;51.292;6.868;2022-08-27T10:13:04;100535.00;;;23.97;58.67
33075;BME280;19433;51.292;6.868;2022-08-27T10:15:37;100537.94;;;22.92;59.66
33075;BME280;19433;51.292;6.868;2022-08-27T10:18:11;100533.00;;;21.66;64.48
33075;BME280;19433;51.292;6.868;2022-08-27T10:23:51;100544.41;;;22.22;63.88
33075;BME280;19433;51.292;6.868;2022-08-27T10:30:03;100546.69;;;22.60;66.17
33075;BME280;19433;51.292;6.868;2022-08-27T10:33:21;100546.38;;;22.62;61.64
33075;BME280;19433;51.292;6.868;2022-08-27T10:35:46;100543.28;;;22.23;62.53
33075;BME280;19433;51.292;6.868;2022-08-27T10:38:21;100530.63;;;22.51;63.34
33075;BME280;19433;51.292;6.868;2022-08-27T10:40:55;100539.47;;;23.39;62.38
33075;BME280;19433;51.292;6.868;2022-08-27T10:43:49;100544.13;;;22.74;60.38
33075;BME280;19433;51.292;6.868;2022-08-27T10:46:44;100543.88;;;22.30;61.42
33075;BME280;19433;51.292;6.868;2022-08-27T10:52:33;100544.13;;;23.04;60.19
33075;BME280;19433;51.292;6.868;2022-08-27T10:55:13;100538.94;;;23.52;59.97
33075;BME280;19433;51.292;6.868;2022-08-27T11:01:05;100536.53;;;22.74;59.44
33075;BME280;19433;51.292;6.868;2022-08-27T11:03:47;100531.31;;;23.42;60.61
33075;BME280;19433;51.292;6.868;2022-08-27T11:08:49;100536.03;;;23.67;60.43
33075;BME280;19433;51.292;6.868;2022-08-27T11:11:37;100529.03;;;23.49;58.75
33075;BME280;19433;51.292;6.868;2022-08-27T11:14:07;100526.59;;;23.87;57.77
33075;BME280;19433;51.292;6.868;2022-08-27T11:16:40;100535.25;;;24.01;57.19
33075;BME280;19433;51.292;6.868;2022-08-27T11:19:27;100533.16;;;24.22;57.18
33075;BME280;19433;51.292;6.868;2022-08-27T11:22:10;100541.91;;;24.20;59.29
33075;BME280;19433;51.292;6.868;2022-08-27T11:27:08;100532.84;;;24.62;53.75
33075;BME280;19433;51.292;6.868;2022-08-27T11:29:45;100531.44;;;24.94;56.65
33075;BME280;19433;51.292;6.868;2022-08-27T11:35:02;100522.31;;;24.73;56.50
33075;BME280;19433;51.292;6.868;2022-08-27T11:37:42;100531.84;;;24.77;54.68
33075;BME280;19433;51.292;6.868;2022-08-27T11:40:29;100534.00;;;24.90;53.86
33075;BME280;19433;51.292;6.868;2022-08-27T11:43:03;100515.88;;;24.62;54.36
33075;BME280;19433;51.292;6.868;2022-08-27T11:45:38;100524.41;;;24.57;53.77
33075;BME280;19433;51.292;6.868;2022-08-27T11:48:26;100535.16;;;24.89;53.01
33075;BME280;19433;51.292;6.868;2022-08-27T11:54:42;100528.44;;;24.80;54.57
33075;BME280;19433;51.292;6.868;2022-08-27T11:56:43;100525.72;;;24.70;53.33
33075;BME280;19433;51.292;6.868;2022-08-27T11:59:21;100529.78;;;24.25;57.99
33075;BME280;19433;51.292;6.868;2022-08-27T12:01:48;100533.88;;;24.42;56.61
33075;BME280;19433;51.292;6.868;2022-08-27T12:06:51;100535.75;;;24.52;55.35
33075;BME280;19433;51.292;6.868;2022-08-27T12:09:20;100523.94;;;24.45;52.57
33075;BME280;19433;51.292;6.868;2022-08-27T12:11:54;100527.94;;;24.73;54.80
33075;BME280;19433;51.292;6.868;2022-08-27T12:14:42;100518.78;;;23.69;54.85
33075;BME280;19433;51.292;6.868;2022-08-27T12:17:39;100521.59;;;24.18;53.61
33075;BME280;19433;51.292;6.868;2022-08-27T12:23:25;100523.84;;;23.77;56.00
33075;BME280;19433;51.292;6.868;2022-08-27T12:26:29;100524.97;;;23.76;57.49
33075;BME280;19433;51.292;6.868;2022-08-27T12:29:19;100524.78;;;24.45;55.74
33075;BME280;19433;51.292;6.868;2022-08-27T12:31:47;100518.13;;;24.94;53.08
33075;BME280;19433;51.292;6.868;2022-08-27T12:34:23;100526.66;;;25.18;51.38
33075;BME280;19433;51.292;6.868;2022-08-27T12:36:51;100522.00;;;24.74;52.98
33075;BME280;19433;51.292;6.868;2022-08-27T12:39:21;100517.03;;;23.83;54.74
33075;BME280;19433;51.292;6.868;2022-08-27T12:41:48;100521.63;;;24.52;55.69
33075;BME280;19433;51.292;6.868;2022-08-27T12:44:25;100525.13;;;25.02;53.14
33075;BME280;19433;51.292;6.868;2022-08-27T12:47:20;100523.88;;;25.37;52.71
33075;BME280;19433;51.292;6.868;2022-08-27T12:49:58;100520.16;;;25.65;50.61
33075;BME280;19433;51.292;6.868;2022-08-27T12:57:57;100513.81;;;25.73;51.53
33075;BME280;19433;51.292;6.868;2022-08-27T13:00:31;100503.88;;;25.76;50.94
33075;BME280;19433;51.292;6.868;2022-08-27T13:03:15;100511.06;;;26.24;49.75
33075;BME280;19433;51.292;6.868;2022-08-27T13:05:46;100506.25;;;26.06;49.13
33075;BME280;19433;51.292;6.868;2022-08-27T13:08:17;100507.88;;;26.12;50.79
33075;BME280;19433;51.292;6.868;2022-08-27T13:10:43;100504.09;;;25.98;49.10
33075;BME280;19433;51.292;6.868;2022-08-27T13:13:14;100505.66;;;25.90;48.58
33075;BME280;19433;51.292;6.868;2022-08-27T13:15:44;100504.97;;;25.80;48.54
33075;BME280;19433;51.292;6.868;2022-08-27T13:18:10;100504.25;;;25.45;49.28
33075;BME280;19433;51.292;6.868;2022-08-27T13:20:38;100489.22;;;25.02;50.46
33075;BME280;19433;51.292;6.868;2022-08-27T13:23:07;100488.00;;;24.56;53.42
33075;BME280;19433;51.292;6.868;2022-08-27T13:25:37;100497.75;;;24.39;52.76
33075;BME280;19433;51.292;6.868;2022-08-27T13:28:09;100492.47;;;24.23;53.80
33075;BME280;19433;51.292;6.868;2022-08-27T13:30:38;100499.63;;;24.10;54.68
33075;BME280;19433;51.292;6.868;2022-08-27T13:33:08;100488.59;;;23.74;55.61
33075;BME280;19433;51.292;6.868;2022-08-27T13:35:35;100482.13;;;23.69;55.81
33075;BME280;19433;51.292;6.868;2022-08-27T13:38:02;100492.63;;;23.58;55.00
33075;BME280;19433;51.292;6.868;2022-08-27T13:40:37;100489.03;;;23.37;55.53
33075;BME280;19433;51.292;6.868;2022-08-27T13:43:14;100480.94;;;23.15;55.90
33075;BME280;19433;51.292;6.868;2022-08-27T13:45:40;100496.69;;;23.27;58.38
33075;BME280;19433;51.292;6.868;2022-08-27T13:48:07;100483.69;;;23.36;56.52